createdAt,value
2022-09-12T00:02:29.129Z,7.75
2022-09-12T00:05:00.018Z,8.25
2022-09-12T00:07:30.987Z,8.05
2022-09-12T00:10:01.549Z,8.97
2022-09-12T00:12:32.473Z,6.93
2022-09-12T00:15:03.350Z,6.90
2022-09-12T00:17:34.039Z,7.32
2022-09-12T00:20:05.279Z,8.40
2022-09-12T00:22:36.416Z,10.32
2022-09-12T00:25:08.457Z,9.13
2022-09-12T00:27:39.166Z,12.25
2022-09-12T00:30:10.341Z,7.40
2022-09-12T00:32:41.278Z,10.23
2022-09-12T00:35:11.985Z,10.88
2022-09-12T00:37:42.790Z,11.82
2022-09-12T00:40:14.050Z,11.80
2022-09-12T00:42:44.871Z,14.55
2022-09-12T00:45:29.547Z,10.05
2022-09-12T00:48:05.133Z,10.82
2022-09-12T00:50:36.509Z,7.72
2022-09-12T00:55:44.534Z,7.22
2022-09-12T00:58:22.898Z,6.97
2022-09-12T01:00:54.396Z,8.15
2022-09-12T01:03:27.760Z,8.98
2022-09-12T01:06:31.192Z,8.13
2022-09-12T01:09:06.421Z,8.25
2022-09-12T01:11:42.817Z,8.30
2022-09-12T01:14:13.853Z,10.70
2022-09-12T01:16:44.954Z,10.82
2022-09-12T01:19:45.875Z,8.43
2022-09-12T01:22:34.654Z,8.43
2022-09-12T01:25:33.160Z,9.10
2022-09-12T01:28:28.878Z,8.05
2022-09-12T01:31:25.147Z,6.60
2022-09-12T01:34:10.976Z,9.05
2022-09-12T01:36:53.684Z,7.43
2022-09-12T01:39:38.721Z,8.95
2022-09-12T01:42:44.991Z,8.88
2022-09-12T01:45:44.147Z,8.95
2022-09-12T01:48:25.698Z,9.63
2022-09-12T01:51:21.006Z,9.07
2022-09-12T01:54:00.013Z,7.75
2022-09-12T01:56:34.152Z,8.38
2022-09-12T01:59:14.074Z,11.35
2022-09-12T02:01:57.604Z,7.88
2022-09-12T02:05:16.641Z,8.90
2022-09-12T02:07:52.794Z,8.27
2022-09-12T02:10:32.883Z,8.82
2022-09-12T02:13:26.764Z,9.40
2022-09-12T02:16:04.857Z,7.47
2022-09-12T02:18:37.144Z,7.60
2022-09-12T02:21:09.957Z,8.07
2022-09-12T02:23:48.936Z,8.95
2022-09-12T02:26:45.341Z,7.75
2022-09-12T02:29:16.185Z,10.93
2022-09-12T02:31:54.695Z,7.35
2022-09-12T02:34:42.507Z,10.23
2022-09-12T02:37:48.935Z,10.07
2022-09-12T02:40:21.094Z,8.40
2022-09-12T02:42:53.237Z,8.15
2022-09-12T02:45:26.045Z,10.48
2022-09-12T02:48:00.918Z,10.40
2022-09-12T02:50:32.219Z,8.25
2022-09-12T02:53:07.567Z,9.25
2022-09-12T02:55:41.538Z,7.75
2022-09-12T02:58:18.701Z,10.48
2022-09-12T03:01:00.639Z,9.15
2022-09-12T03:04:15.166Z,8.95
2022-09-12T03:07:01.839Z,7.45
2022-09-12T03:09:50.937Z,10.00
2022-09-12T03:12:21.517Z,9.25
2022-09-12T03:14:57.798Z,9.80
2022-09-12T03:17:33.987Z,10.88
2022-09-12T03:20:19.730Z,12.73
2022-09-12T03:22:59.222Z,10.35
2022-09-12T03:25:41.198Z,10.82
2022-09-12T03:28:18.665Z,11.13
2022-09-12T03:30:51.549Z,11.80
2022-09-12T03:33:25.317Z,11.38
2022-09-12T03:35:57.939Z,12.70
2022-09-12T03:38:28.717Z,10.52
2022-09-12T03:40:59.558Z,12.30
2022-09-12T03:43:30.289Z,9.95
2022-09-12T03:46:01.405Z,12.38
2022-09-12T03:48:32.110Z,9.77
2022-09-12T03:51:08.282Z,10.77
2022-09-12T03:53:39.108Z,10.75
2022-09-12T03:56:14.881Z,10.73
2022-09-12T03:58:45.694Z,12.10
2022-09-12T04:01:19.305Z,10.70
2022-09-12T04:03:53.350Z,12.57
2022-09-12T04:06:25.694Z,11.88
2022-09-12T04:08:58.240Z,13.07
2022-09-12T04:11:29.058Z,9.43
2022-09-12T04:13:59.846Z,10.27
2022-09-12T04:16:30.896Z,11.32
2022-09-12T04:19:02.676Z,10.80
2022-09-12T04:21:34.091Z,10.63
2022-09-12T04:26:35.546Z,10.30
2022-09-12T04:29:06.339Z,12.03
2022-09-12T04:31:37.358Z,10.85
2022-09-12T04:34:08.372Z,12.75
2022-09-12T04:36:40.123Z,9.82
2022-09-12T04:39:11.273Z,10.70
2022-09-12T04:44:17.860Z,10.77
2022-09-12T04:46:50.677Z,11.90
2022-09-12T04:49:22.052Z,11.45
2022-09-12T04:51:56.189Z,11.25
2022-09-12T04:54:27.043Z,11.52
2022-09-12T04:56:57.870Z,10.63
2022-09-12T04:59:30.319Z,10.48
2022-09-12T05:02:01.497Z,10.95
2022-09-12T05:04:32.406Z,11.93
2022-09-12T05:07:03.306Z,11.55
2022-09-12T05:09:34.659Z,10.52
2022-09-12T05:12:06.258Z,11.32
2022-09-12T05:14:37.474Z,11.02
2022-09-12T05:17:08.694Z,10.68
2022-09-12T05:19:39.780Z,11.85
2022-09-12T05:22:10.516Z,11.05
2022-09-12T05:24:42.053Z,10.87
2022-09-12T05:27:13.175Z,11.40
2022-09-12T05:29:43.972Z,11.77
2022-09-12T05:32:15.360Z,11.52
2022-09-12T05:37:16.857Z,13.02
2022-09-12T05:39:48.787Z,12.40
2022-09-12T05:42:19.583Z,11.45
2022-09-12T05:44:50.337Z,12.20
2022-09-12T05:47:21.721Z,12.43
2022-09-12T05:52:24.795Z,12.80
2022-09-12T05:54:55.470Z,13.77
2022-09-12T05:57:26.397Z,13.10
2022-09-12T05:59:57.284Z,13.68
2022-09-12T06:02:28.234Z,14.90
2022-09-12T06:04:59.061Z,13.73
2022-09-12T06:07:29.928Z,13.23
2022-09-12T06:10:01.919Z,13.98
2022-09-12T06:12:33.064Z,14.30
2022-09-12T06:15:03.932Z,14.90
2022-09-12T06:17:35.192Z,14.38
2022-09-12T06:20:06.743Z,15.18
2022-09-12T06:22:37.528Z,14.98
2022-09-12T06:25:08.564Z,15.35
2022-09-12T06:27:39.325Z,15.40
2022-09-12T06:30:10.579Z,15.83
2022-09-12T06:35:13.098Z,15.18
2022-09-12T06:37:46.867Z,16.85
2022-09-12T06:40:17.823Z,16.88
2022-09-12T06:42:48.755Z,17.60
2022-09-12T06:45:35.270Z,17.15
2022-09-12T06:48:06.287Z,17.08
2022-09-12T06:50:37.180Z,17.67
2022-09-12T06:53:07.993Z,18.35
2022-09-12T06:55:38.974Z,19.58
2022-09-12T06:58:09.938Z,19.20
2022-09-12T07:00:41.364Z,18.50
2022-09-12T07:03:12.757Z,19.48
2022-09-12T07:08:13.975Z,20.85
2022-09-12T07:10:44.635Z,19.30
2022-09-12T07:13:16.589Z,18.40
2022-09-12T07:15:47.397Z,19.90
2022-09-12T07:18:18.270Z,20.90
2022-09-12T07:20:49.227Z,19.63
2022-09-12T07:23:20.086Z,20.08
2022-09-12T07:26:01.019Z,20.53
2022-09-12T07:28:34.350Z,21.42
2022-09-12T07:31:17.317Z,21.35
2022-09-12T07:33:52.372Z,20.73
2022-09-12T07:36:30.191Z,21.50
2022-09-12T07:39:01.744Z,20.83
2022-09-12T07:41:35.477Z,22.10
2022-09-12T07:44:09.414Z,20.67
2022-09-12T07:46:41.155Z,21.20
2022-09-12T07:49:12.101Z,21.40
2022-09-12T07:51:43.824Z,21.95
2022-09-12T07:54:14.687Z,21.65
2022-09-12T07:56:45.526Z,21.38
2022-09-12T07:59:25.510Z,21.65
2022-09-12T08:02:07.306Z,22.80
2022-09-12T08:04:39.164Z,22.55
2022-09-12T08:07:09.956Z,22.95
2022-09-12T08:09:40.902Z,22.08
2022-09-12T08:12:11.995Z,21.73
2022-09-12T08:17:13.601Z,22.92
2022-09-12T08:19:44.596Z,23.00
2022-09-12T08:22:16.439Z,24.08
2022-09-12T08:24:47.448Z,21.92
2022-09-12T08:27:19.019Z,23.27
2022-09-12T08:29:50.023Z,22.17
2022-09-12T08:32:20.806Z,22.45
2022-09-12T08:34:51.944Z,23.48
2022-09-12T08:37:22.823Z,22.67
2022-09-12T08:39:55.762Z,22.20
2022-09-12T08:42:57.671Z,23.05
2022-09-12T08:45:57.190Z,23.25
2022-09-12T08:48:28.155Z,22.63
2022-09-12T08:50:59.258Z,22.73
2022-09-12T08:53:33.193Z,22.67
2022-09-12T08:56:06.440Z,24.75
2022-09-12T08:58:42.367Z,31.08
2022-09-12T09:01:36.051Z,37.47
2022-09-12T09:04:40.255Z,38.83
2022-09-12T09:07:52.179Z,38.92
2022-09-12T09:10:41.348Z,41.28
2022-09-12T09:14:10.794Z,38.90
2022-09-12T09:16:51.490Z,35.17
2022-09-12T09:19:48.828Z,33.23
2022-09-12T09:22:38.359Z,30.00
2022-09-12T09:25:23.105Z,25.83
2022-09-12T09:28:10.133Z,27.10
2022-09-12T09:30:49.674Z,24.10
2022-09-12T09:33:31.069Z,23.60
2022-09-12T09:36:14.204Z,23.27
2022-09-12T09:38:54.223Z,22.98
2022-09-12T09:41:43.217Z,22.30
2022-09-12T09:44:14.415Z,21.88
2022-09-12T09:46:45.343Z,22.20
2022-09-12T09:49:19.013Z,21.15
2022-09-12T09:51:50.636Z,20.17
2022-09-12T09:54:29.410Z,18.73
2022-09-12T09:57:00.278Z,15.52
2022-09-12T09:59:34.041Z,15.85
2022-09-12T10:02:25.972Z,15.38
2022-09-12T10:05:01.524Z,16.60
2022-09-12T10:07:32.309Z,15.35
2022-09-12T10:10:19.154Z,15.80
2022-09-12T10:12:49.974Z,15.25
2022-09-12T10:15:28.853Z,14.98
2022-09-12T10:18:01.621Z,15.13
2022-09-12T10:20:36.683Z,13.77
2022-09-12T10:23:32.882Z,14.07
2022-09-12T10:26:07.887Z,13.40
2022-09-12T10:28:51.170Z,11.73
2022-09-12T10:31:32.793Z,11.18
2022-09-12T10:34:04.119Z,10.70
2022-09-12T10:39:21.405Z,9.65
2022-09-12T10:41:52.364Z,10.98
2022-09-12T10:44:33.390Z,9.57
2022-09-12T10:47:23.952Z,9.90
2022-09-12T10:49:54.946Z,8.55
2022-09-12T10:52:27.581Z,8.23
2022-09-12T10:54:58.586Z,8.57
2022-09-12T10:58:05.055Z,9.73
2022-09-12T11:00:42.631Z,8.95
2022-09-12T11:03:25.398Z,8.70
2022-09-12T11:06:03.246Z,8.73
2022-09-12T11:08:58.656Z,8.65
2022-09-12T11:11:44.569Z,8.60
2022-09-12T11:14:28.222Z,8.73
2022-09-12T11:16:59.020Z,9.02
2022-09-12T11:19:49.897Z,9.45
2022-09-12T11:22:31.857Z,23.17
2022-09-12T11:25:32.838Z,16.85
2022-09-12T11:28:29.049Z,12.68
2022-09-12T11:31:37.243Z,10.93
2022-09-12T11:34:19.296Z,11.60
2022-09-12T11:37:26.634Z,12.85
2022-09-12T11:40:03.015Z,10.63
2022-09-12T11:42:38.380Z,10.60
2022-09-12T11:45:38.894Z,10.45
2022-09-12T11:48:17.521Z,10.15
2022-09-12T11:50:48.372Z,10.60
2022-09-12T11:53:26.167Z,10.73
2022-09-12T11:56:21.238Z,11.82
2022-09-12T11:59:28.035Z,12.57
2022-09-12T12:02:05.406Z,11.13
2022-09-12T12:04:46.885Z,11.30
2022-09-12T12:07:18.021Z,11.15
2022-09-12T12:09:54.719Z,12.20
2022-09-12T13:45:56.868Z,19.73
2022-09-12T13:48:28.782Z,17.02
2022-09-12T13:51:03.540Z,20.92
2022-09-12T13:53:46.969Z,16.77
2022-09-12T13:56:22.733Z,20.85
2022-09-12T13:59:01.035Z,18.25
2022-09-12T14:01:49.514Z,19.05
2022-09-12T14:04:44.169Z,20.55
2022-09-12T14:07:23.044Z,21.83
2022-09-12T14:09:59.750Z,18.92
2022-09-12T14:12:42.903Z,17.60
2022-09-12T14:15:27.159Z,18.63
2022-09-12T14:18:04.110Z,16.58
2022-09-12T14:20:39.402Z,17.02
2022-09-12T14:23:24.137Z,20.08
2022-09-12T14:25:54.977Z,21.00
2022-09-12T14:28:27.228Z,17.75
2022-09-12T14:31:09.852Z,20.05
2022-09-12T14:33:58.635Z,19.67
2022-09-12T14:36:35.025Z,20.17
2022-09-12T14:39:20.575Z,18.52
2022-09-12T14:41:52.881Z,18.73
2022-09-12T14:44:27.968Z,20.48
2022-09-12T14:47:03.515Z,19.10
2022-09-12T14:49:37.845Z,17.95
2022-09-12T14:52:12.794Z,17.83
2022-09-12T14:54:45.568Z,15.70
2022-09-12T14:57:42.861Z,17.25
2022-09-12T15:00:16.897Z,16.88
2022-09-12T15:02:48.049Z,18.45
2022-09-12T15:05:24.939Z,17.98
2022-09-12T15:08:00.785Z,18.30
2022-09-12T15:10:40.730Z,18.63
2022-09-12T15:13:19.274Z,20.25
2022-09-12T15:15:53.343Z,18.48
2022-09-12T15:18:26.132Z,19.50
2022-09-12T15:21:08.671Z,19.95
2022-09-12T15:23:50.211Z,18.42
2022-09-12T15:26:24.973Z,18.88
2022-09-12T15:28:56.802Z,17.67
2022-09-12T15:31:33.384Z,15.80
2022-09-12T15:34:05.249Z,17.52
2022-09-12T15:36:36.138Z,16.83
2022-09-12T15:39:07.428Z,17.38
2022-09-12T15:41:40.732Z,17.00
2022-09-12T15:44:15.172Z,19.23
2022-09-12T15:46:46.184Z,16.83
2022-09-12T15:49:17.352Z,16.50
2022-09-12T15:51:48.074Z,18.38
2022-09-12T15:54:21.419Z,17.90
2022-09-12T15:56:53.018Z,18.67
2022-09-12T15:59:24.076Z,16.60
2022-09-12T16:01:55.017Z,16.35
2022-09-12T16:04:28.189Z,16.05
2022-09-12T16:06:59.926Z,16.38
2022-09-12T16:09:30.651Z,17.88
2022-09-12T16:12:01.504Z,17.60
2022-09-12T16:14:32.410Z,20.05
2022-09-12T16:17:03.206Z,17.27
2022-09-12T16:19:33.910Z,17.67
2022-09-12T16:22:04.883Z,17.60
2022-09-12T16:24:35.868Z,17.95
2022-09-12T16:27:07.229Z,19.35
2022-09-12T16:29:38.170Z,16.20
2022-09-12T16:32:09.449Z,17.50
2022-09-12T16:34:40.366Z,18.13
2022-09-12T16:37:11.242Z,17.60
2022-09-12T16:39:42.443Z,17.50
2022-09-12T16:42:13.468Z,17.40
2022-09-12T16:44:44.474Z,17.38
2022-09-12T16:47:15.785Z,17.27
2022-09-12T16:49:46.973Z,17.92
2022-09-12T16:52:19.447Z,17.42
2022-09-12T16:54:50.376Z,17.77
2022-09-12T16:57:21.005Z,19.03
2022-09-12T16:59:52.483Z,17.10
2022-09-12T17:02:23.453Z,18.88
2022-09-12T17:04:55.365Z,18.58
2022-09-12T17:07:26.625Z,18.48
2022-09-12T17:09:57.533Z,17.98
2022-09-12T17:12:28.716Z,18.23
2022-09-12T17:14:59.578Z,19.63
2022-09-12T17:17:30.608Z,19.88
2022-09-12T17:20:01.250Z,19.00
2022-09-12T17:22:32.234Z,18.30
2022-09-12T17:25:02.915Z,19.35
2022-09-12T17:27:33.885Z,18.33
2022-09-12T17:30:04.902Z,20.33
2022-09-12T17:32:35.661Z,20.30
2022-09-12T17:35:06.455Z,21.27
2022-09-12T17:37:38.833Z,20.70
2022-09-12T17:40:10.399Z,20.08
2022-09-12T17:42:41.737Z,21.52
2022-09-12T17:47:48.903Z,18.85
2022-09-12T17:50:31.682Z,20.37
2022-09-12T17:53:03.377Z,22.33
2022-09-12T17:55:35.083Z,19.00
2022-09-12T17:58:06.774Z,18.38
2022-09-12T18:00:56.437Z,19.40
2022-09-12T18:03:28.020Z,21.30
2022-09-12T18:05:59.805Z,20.23
2022-09-12T18:08:30.721Z,19.55
2022-09-12T18:11:08.330Z,20.80
2022-09-12T18:13:39.132Z,18.35
2022-09-12T18:16:12.503Z,17.83
2022-09-12T18:18:44.083Z,18.08
2022-09-12T18:21:15.478Z,19.25
2022-09-12T18:26:17.085Z,16.13
2022-09-12T18:28:48.004Z,16.38
2022-09-12T18:31:21.323Z,17.02
2022-09-12T18:33:52.540Z,15.85
2022-09-12T18:36:23.888Z,14.55
2022-09-12T18:38:54.663Z,16.38
2022-09-12T18:41:27.588Z,13.80
2022-09-12T18:44:03.087Z,13.88
2022-09-12T18:46:35.850Z,16.60
2022-09-12T18:49:07.400Z,13.20
2022-09-12T18:51:40.002Z,13.73
2022-09-12T18:54:15.864Z,13.20
2022-09-12T18:56:48.307Z,13.95
2022-09-12T18:59:19.330Z,12.77
2022-09-12T19:01:50.781Z,14.82
2022-09-12T19:06:52.238Z,12.60
2022-09-12T19:09:23.690Z,11.80
2022-09-12T19:14:28.613Z,11.60
2022-09-12T19:16:59.572Z,13.65
2022-09-12T19:19:30.430Z,13.15
2022-09-12T19:22:01.244Z,13.35
2022-09-12T19:24:31.908Z,12.15
2022-09-12T19:27:02.611Z,11.17
2022-09-12T19:29:33.402Z,14.07
2022-09-12T19:32:04.414Z,11.20
2022-09-12T19:34:35.273Z,11.57
2022-09-12T19:37:06.829Z,11.57
2022-09-12T19:39:37.555Z,11.18
2022-09-12T19:42:08.246Z,12.70
2022-09-12T19:44:38.932Z,13.90
2022-09-12T19:47:09.592Z,11.47
2022-09-12T19:49:40.333Z,12.10
2022-09-12T19:52:13.399Z,11.88
2022-09-12T19:54:46.437Z,11.48
2022-09-12T19:57:17.264Z,11.95
2022-09-12T19:59:48.918Z,11.40
2022-09-12T20:02:19.807Z,12.15
2022-09-12T20:04:50.616Z,12.00
2022-09-12T20:07:21.864Z,13.83
2022-09-12T20:09:52.836Z,11.07
2022-09-12T20:12:23.851Z,13.05
2022-09-12T20:14:54.558Z,11.45
2022-09-12T20:17:25.216Z,11.63
2022-09-12T20:19:55.922Z,11.80
2022-09-12T20:22:26.939Z,16.67
2022-09-12T20:24:57.620Z,11.70
2022-09-12T20:27:28.703Z,12.13
2022-09-12T20:30:00.939Z,13.35
2022-09-12T20:32:32.318Z,12.25
2022-09-12T20:35:03.069Z,13.77
2022-09-12T20:37:34.009Z,14.55
2022-09-12T20:40:05.564Z,11.77
2022-09-12T20:45:07.944Z,12.75
2022-09-12T20:47:38.785Z,12.20
2022-09-12T20:50:09.790Z,12.18
2022-09-12T20:52:40.554Z,12.88
2022-09-12T20:55:12.101Z,12.98
2022-09-12T21:00:14.041Z,11.43
2022-09-12T21:02:44.897Z,11.35
2022-09-12T21:05:15.801Z,13.95
2022-09-12T21:07:46.603Z,10.23
2022-09-12T21:10:17.673Z,12.90
2022-09-12T21:12:48.467Z,10.45
2022-09-12T21:15:19.279Z,13.67
2022-09-12T21:17:49.974Z,14.35
2022-09-12T21:20:20.941Z,14.07
2022-09-12T21:22:51.609Z,10.82
2022-09-12T21:25:22.376Z,10.70
2022-09-12T21:27:53.170Z,11.27
2022-09-12T21:30:24.074Z,14.68
2022-09-12T21:32:54.880Z,10.10
2022-09-12T21:35:25.583Z,11.43
2022-09-12T21:37:56.571Z,14.23
2022-09-12T21:40:27.319Z,12.13
2022-09-12T21:42:58.156Z,12.13
2022-09-12T21:45:29.072Z,10.10
2022-09-12T21:48:00.264Z,14.05
2022-09-12T21:50:31.172Z,11.77
2022-09-12T21:53:01.961Z,11.57
2022-09-12T21:55:32.961Z,11.38
2022-09-12T21:58:03.585Z,12.38
2022-09-12T22:00:34.710Z,10.67
2022-09-12T22:03:06.110Z,13.57
2022-09-12T22:05:39.306Z,13.95
2022-09-12T22:08:16.530Z,11.05
2022-09-12T22:10:47.635Z,11.80
2022-09-12T22:13:19.517Z,10.13
2022-09-12T22:15:59.716Z,11.30
2022-09-12T22:18:32.376Z,12.10
2022-09-12T22:21:08.193Z,15.10
2022-09-12T22:23:58.106Z,16.52
2022-09-12T22:26:32.856Z,16.25
2022-09-12T22:29:08.081Z,15.90
2022-09-12T22:31:40.448Z,19.08
2022-09-12T22:34:14.969Z,17.20
2022-09-12T22:36:47.163Z,16.40
2022-09-12T22:39:18.598Z,21.13
2022-09-12T22:41:49.876Z,14.98
2022-09-12T22:44:20.605Z,21.95
2022-09-12T22:46:52.643Z,19.27
2022-09-12T22:49:23.606Z,21.13
2022-09-12T22:51:56.102Z,17.02
2022-09-12T22:54:30.744Z,27.58
2022-09-12T22:57:01.917Z,17.42
2022-09-12T22:59:33.717Z,19.55
2022-09-12T23:02:07.464Z,20.73
2022-09-12T23:04:40.358Z,23.65
2022-09-12T23:07:12.166Z,18.50
2022-09-12T23:09:42.945Z,16.70
2022-09-12T23:12:18.221Z,17.57
2022-09-12T23:14:50.078Z,18.80
2022-09-12T23:17:20.863Z,16.05
2022-09-12T23:19:52.114Z,16.17
2022-09-12T23:22:23.112Z,15.18
2022-09-12T23:24:54.074Z,18.55
2022-09-12T23:27:25.886Z,15.32
2022-09-12T23:29:56.919Z,21.55
2022-09-12T23:32:28.506Z,22.40
2022-09-12T23:35:00.155Z,15.00
2022-09-12T23:37:32.259Z,18.88
2022-09-12T23:40:03.214Z,18.65
2022-09-12T23:42:34.112Z,21.30
2022-09-12T23:45:09.250Z,19.13
2022-09-12T23:47:45.564Z,17.58
2022-09-12T23:50:18.511Z,18.02
2022-09-12T23:52:49.606Z,18.02
2022-09-12T23:55:24.062Z,17.57
2022-09-12T23:57:55.831Z,18.42
